sensor_id;sensor_type;location;lat;lon;timestamp;P1;durP1;ratioP1;P2;durP2;ratioP2
81679;SDS011;74989;52.210;5.148;2024-02-26T00:01:04;3.85;;;2.80;;
81679;SDS011;74989;52.210;5.148;2024-02-26T00:03:30;3.80;;;3.20;;
81679;SDS011;74989;52.210;5.148;2024-02-26T00:06:00;6.20;;;3.97;;
81679;SDS011;74989;52.210;5.148;2024-02-26T00:08:27;4.05;;;2.90;;
81679;SDS011;74989;52.210;5.148;2024-02-26T00:10:54;6.10;;;3.63;;
81679;SDS011;74989;52.210;5.148;2024-02-26T00:13:20;5.70;;;3.17;;
81679;SDS011;74989;52.210;5.148;2024-02-26T00:15:48;6.38;;;3.80;;
81679;SDS011;74989;52.210;5.148;2024-02-26T00:18:15;3.53;;;3.22;;
81679;SDS011;74989;52.210;5.148;2024-02-26T00:20:42;3.40;;;3.10;;
81679;SDS011;74989;52.210;5.148;2024-02-26T00:23:09;4.27;;;3.00;;
81679;SDS011;74989;52.210;5.148;2024-02-26T00:25:35;7.93;;;3.40;;
81679;SDS011;74989;52.210;5.148;2024-02-26T00:28:03;3.97;;;2.80;;
81679;SDS011;74989;52.210;5.148;2024-02-26T00:30:30;4.97;;;3.70;;
81679;SDS011;74989;52.210;5.148;2024-02-26T00:32:58;3.75;;;2.60;;
81679;SDS011;74989;52.210;5.148;2024-02-26T00:35:24;11.87;;;3.27;;
81679;SDS011;74989;52.210;5.148;2024-02-26T00:37:51;6.28;;;3.38;;
81679;SDS011;74989;52.210;5.148;2024-02-26T00:40:18;3.72;;;3.08;;
81679;SDS011;74989;52.210;5.148;2024-02-26T00:42:44;5.63;;;3.63;;
81679;SDS011;74989;52.210;5.148;2024-02-26T00:45:13;5.07;;;3.25;;
81679;SDS011;74989;52.210;5.148;2024-02-26T00:47:41;4.53;;;3.47;;
81679;SDS011;74989;52.210;5.148;2024-02-26T00:50:10;7.00;;;3.30;;
81679;SDS011;74989;52.210;5.148;2024-02-26T00:52:37;4.63;;;2.97;;
81679;SDS011;74989;52.210;5.148;2024-02-26T00:55:04;7.57;;;3.75;;
81679;SDS011;74989;52.210;5.148;2024-02-26T00:57:32;4.20;;;3.80;;
81679;SDS011;74989;52.210;5.148;2024-02-26T00:59:58;5.37;;;4.13;;
81679;SDS011;74989;52.210;5.148;2024-02-26T01:02:26;6.93;;;4.25;;
81679;SDS011;74989;52.210;5.148;2024-02-26T01:04:52;6.13;;;4.43;;
81679;SDS011;74989;52.210;5.148;2024-02-26T01:07:20;3.88;;;3.42;;
81679;SDS011;74989;52.210;5.148;2024-02-26T01:09:47;5.10;;;4.20;;
81679;SDS011;74989;52.210;5.148;2024-02-26T01:12:14;6.07;;;4.33;;
81679;SDS011;74989;52.210;5.148;2024-02-26T01:14:41;6.10;;;4.70;;
81679;SDS011;74989;52.210;5.148;2024-02-26T01:17:07;6.93;;;4.75;;
81679;SDS011;74989;52.210;5.148;2024-02-26T01:19:34;9.30;;;5.13;;
81679;SDS011;74989;52.210;5.148;2024-02-26T01:22:01;5.88;;;4.90;;
81679;SDS011;74989;52.210;5.148;2024-02-26T01:24:29;6.47;;;5.43;;
81679;SDS011;74989;52.210;5.148;2024-02-26T01:26:56;7.10;;;5.15;;
81679;SDS011;74989;52.210;5.148;2024-02-26T01:29:22;6.32;;;4.93;;
81679;SDS011;74989;52.210;5.148;2024-02-26T01:31:49;8.07;;;5.68;;
81679;SDS011;74989;52.210;5.148;2024-02-26T01:34:16;9.63;;;5.38;;
81679;SDS011;74989;52.210;5.148;2024-02-26T01:36:43;8.13;;;5.60;;
81679;SDS011;74989;52.210;5.148;2024-02-26T01:39:10;9.75;;;5.80;;
81679;SDS011;74989;52.210;5.148;2024-02-26T01:41:39;8.07;;;6.20;;
81679;SDS011;74989;52.210;5.148;2024-02-26T01:44:06;10.95;;;6.72;;
81679;SDS011;74989;52.210;5.148;2024-02-26T01:46:34;10.95;;;6.55;;
81679;SDS011;74989;52.210;5.148;2024-02-26T01:49:02;7.00;;;5.90;;
81679;SDS011;74989;52.210;5.148;2024-02-26T01:51:29;7.35;;;5.60;;
81679;SDS011;74989;52.210;5.148;2024-02-26T01:53:57;6.85;;;5.40;;
81679;SDS011;74989;52.210;5.148;2024-02-26T01:56:25;8.65;;;6.25;;
81679;SDS011;74989;52.210;5.148;2024-02-26T01:58:56;7.40;;;6.50;;
81679;SDS011;74989;52.210;5.148;2024-02-26T02:01:24;7.03;;;5.80;;
81679;SDS011;74989;52.210;5.148;2024-02-26T02:03:53;8.02;;;5.88;;
81679;SDS011;74989;52.210;5.148;2024-02-26T02:06:20;7.57;;;5.60;;
81679;SDS011;74989;52.210;5.148;2024-02-26T02:08:47;7.55;;;6.00;;
81679;SDS011;74989;52.210;5.148;2024-02-26T02:11:14;6.30;;;5.50;;
81679;SDS011;74989;52.210;5.148;2024-02-26T02:13:41;8.40;;;5.90;;
81679;SDS011;74989;52.210;5.148;2024-02-26T02:16:09;10.02;;;6.22;;
81679;SDS011;74989;52.210;5.148;2024-02-26T02:18:36;8.80;;;6.00;;
81679;SDS011;74989;52.210;5.148;2024-02-26T02:21:04;7.65;;;6.35;;
81679;SDS011;74989;52.210;5.148;2024-02-26T02:23:31;8.25;;;6.45;;
81679;SDS011;74989;52.210;5.148;2024-02-26T02:25:57;8.13;;;6.63;;
81679;SDS011;74989;52.210;5.148;2024-02-26T02:28:25;8.57;;;6.75;;
81679;SDS011;74989;52.210;5.148;2024-02-26T02:30:53;9.05;;;6.32;;
81679;SDS011;74989;52.210;5.148;2024-02-26T02:33:20;8.73;;;6.45;;
81679;SDS011;74989;52.210;5.148;2024-02-26T02:35:47;8.55;;;5.30;;
81679;SDS011;74989;52.210;5.148;2024-02-26T02:38:17;8.37;;;6.37;;
81679;SDS011;74989;52.210;5.148;2024-02-26T02:40:43;8.95;;;6.53;;
81679;SDS011;74989;52.210;5.148;2024-02-26T02:43:10;8.40;;;6.38;;
81679;SDS011;74989;52.210;5.148;2024-02-26T02:45:37;9.85;;;6.28;;
81679;SDS011;74989;52.210;5.148;2024-02-26T02:48:04;8.32;;;5.78;;
81679;SDS011;74989;52.210;5.148;2024-02-26T02:50:31;7.93;;;6.30;;
81679;SDS011;74989;52.210;5.148;2024-02-26T02:52:57;10.15;;;6.53;;
81679;SDS011;74989;52.210;5.148;2024-02-26T02:55:25;7.25;;;6.15;;
81679;SDS011;74989;52.210;5.148;2024-02-26T02:57:53;9.07;;;6.88;;
81679;SDS011;74989;52.210;5.148;2024-02-26T03:00:19;9.48;;;6.32;;
81679;SDS011;74989;52.210;5.148;2024-02-26T03:02:48;8.07;;;6.50;;
81679;SDS011;74989;52.210;5.148;2024-02-26T03:05:14;10.15;;;6.90;;
81679;SDS011;74989;52.210;5.148;2024-02-26T03:07:41;8.27;;;6.30;;
81679;SDS011;74989;52.210;5.148;2024-02-26T03:10:08;8.98;;;7.38;;
81679;SDS011;74989;52.210;5.148;2024-02-26T03:12:36;8.93;;;7.15;;
81679;SDS011;74989;52.210;5.148;2024-02-26T03:15:03;10.87;;;7.40;;
81679;SDS011;74989;52.210;5.148;2024-02-26T03:17:30;11.35;;;6.32;;
81679;SDS011;74989;52.210;5.148;2024-02-26T03:19:57;7.00;;;6.30;;
81679;SDS011;74989;52.210;5.148;2024-02-26T03:22:24;13.05;;;7.28;;
81679;SDS011;74989;52.210;5.148;2024-02-26T03:24:50;13.20;;;8.23;;
81679;SDS011;74989;52.210;5.148;2024-02-26T03:27:17;8.90;;;7.33;;
81679;SDS011;74989;52.210;5.148;2024-02-26T03:29:45;10.18;;;7.93;;
81679;SDS011;74989;52.210;5.148;2024-02-26T03:32:13;12.00;;;8.18;;
81679;SDS011;74989;52.210;5.148;2024-02-26T03:34:39;9.90;;;7.82;;
81679;SDS011;74989;52.210;5.148;2024-02-26T03:37:06;10.25;;;8.05;;
81679;SDS011;74989;52.210;5.148;2024-02-26T03:39:35;9.83;;;7.77;;
81679;SDS011;74989;52.210;5.148;2024-02-26T03:42:02;10.57;;;8.38;;
81679;SDS011;74989;52.210;5.148;2024-02-26T03:44:29;11.93;;;8.68;;
81679;SDS011;74989;52.210;5.148;2024-02-26T03:46:57;13.02;;;8.85;;
81679;SDS011;74989;52.210;5.148;2024-02-26T03:49:23;13.48;;;9.13;;
81679;SDS011;74989;52.210;5.148;2024-02-26T03:51:50;11.67;;;8.93;;
81679;SDS011;74989;52.210;5.148;2024-02-26T03:54:17;11.98;;;10.15;;
81679;SDS011;74989;52.210;5.148;2024-02-26T03:56:43;13.40;;;7.85;;
81679;SDS011;74989;52.210;5.148;2024-02-26T03:59:10;10.15;;;7.15;;
81679;SDS011;74989;52.210;5.148;2024-02-26T04:01:36;12.15;;;8.27;;
81679;SDS011;74989;52.210;5.148;2024-02-26T04:04:05;11.00;;;8.30;;
81679;SDS011;74989;52.210;5.148;2024-02-26T04:06:32;10.02;;;7.53;;
81679;SDS011;74989;52.210;5.148;2024-02-26T04:08:59;11.27;;;7.15;;
81679;SDS011;74989;52.210;5.148;2024-02-26T04:11:28;10.70;;;8.98;;
81679;SDS011;74989;52.210;5.148;2024-02-26T04:13:55;10.23;;;7.65;;
81679;SDS011;74989;52.210;5.148;2024-02-26T04:16:22;9.93;;;8.10;;
81679;SDS011;74989;52.210;5.148;2024-02-26T04:18:48;14.13;;;8.45;;
81679;SDS011;74989;52.210;5.148;2024-02-26T04:21:16;11.70;;;8.25;;
81679;SDS011;74989;52.210;5.148;2024-02-26T04:23:43;12.52;;;8.02;;
81679;SDS011;74989;52.210;5.148;2024-02-26T04:26:09;11.18;;;8.82;;
81679;SDS011;74989;52.210;5.148;2024-02-26T04:28:36;10.90;;;8.67;;
81679;SDS011;74989;52.210;5.148;2024-02-26T04:31:03;8.10;;;6.70;;
81679;SDS011;74989;52.210;5.148;2024-02-26T04:33:29;12.60;;;8.98;;
81679;SDS011;74989;52.210;5.148;2024-02-26T04:35:56;10.88;;;7.20;;
81679;SDS011;74989;52.210;5.148;2024-02-26T04:38:24;10.00;;;8.38;;
81679;SDS011;74989;52.210;5.148;2024-02-26T04:40:51;11.27;;;8.83;;
81679;SDS011;74989;52.210;5.148;2024-02-26T04:43:17;12.88;;;8.90;;
81679;SDS011;74989;52.210;5.148;2024-02-26T04:45:44;14.55;;;8.82;;
81679;SDS011;74989;52.210;5.148;2024-02-26T04:48:11;10.93;;;8.18;;
81679;SDS011;74989;52.210;5.148;2024-02-26T04:50:37;10.75;;;8.13;;
81679;SDS011;74989;52.210;5.148;2024-02-26T04:53:04;14.00;;;9.30;;
81679;SDS011;74989;52.210;5.148;2024-02-26T04:55:32;12.43;;;8.88;;
81679;SDS011;74989;52.210;5.148;2024-02-26T04:57:59;11.38;;;8.55;;
81679;SDS011;74989;52.210;5.148;2024-02-26T05:00:25;15.52;;;9.38;;
81679;SDS011;74989;52.210;5.148;2024-02-26T05:02:52;11.90;;;8.77;;
81679;SDS011;74989;52.210;5.148;2024-02-26T05:05:19;14.00;;;8.97;;
81679;SDS011;74989;52.210;5.148;2024-02-26T05:07:45;13.65;;;8.38;;
81679;SDS011;74989;52.210;5.148;2024-02-26T05:10:12;14.52;;;9.90;;
81679;SDS011;74989;52.210;5.148;2024-02-26T05:12:40;14.77;;;9.35;;
81679;SDS011;74989;52.210;5.148;2024-02-26T05:15:08;11.98;;;10.00;;
81679;SDS011;74989;52.210;5.148;2024-02-26T05:17:35;12.13;;;8.80;;
81679;SDS011;74989;52.210;5.148;2024-02-26T05:20:02;12.82;;;9.75;;
81679;SDS011;74989;52.210;5.148;2024-02-26T05:22:29;13.20;;;9.75;;
81679;SDS011;74989;52.210;5.148;2024-02-26T05:24:56;12.40;;;9.60;;
81679;SDS011;74989;52.210;5.148;2024-02-26T05:27:22;13.68;;;10.02;;
81679;SDS011;74989;52.210;5.148;2024-02-26T05:29:50;14.40;;;9.20;;
81679;SDS011;74989;52.210;5.148;2024-02-26T05:32:19;15.52;;;10.23;;
81679;SDS011;74989;52.210;5.148;2024-02-26T05:34:46;15.27;;;10.02;;
81679;SDS011;74989;52.210;5.148;2024-02-26T05:37:12;15.10;;;9.25;;
81679;SDS011;74989;52.210;5.148;2024-02-26T05:39:39;16.58;;;11.50;;
81679;SDS011;74989;52.210;5.148;2024-02-26T05:42:05;16.40;;;11.53;;
81679;SDS011;74989;52.210;5.148;2024-02-26T05:44:34;14.48;;;10.35;;
81679;SDS011;74989;52.210;5.148;2024-02-26T05:47:02;16.65;;;11.77;;
81679;SDS011;74989;52.210;5.148;2024-02-26T05:49:28;17.55;;;11.77;;
81679;SDS011;74989;52.210;5.148;2024-02-26T05:51:55;15.32;;;10.70;;
81679;SDS011;74989;52.210;5.148;2024-02-26T05:54:22;19.33;;;12.53;;
81679;SDS011;74989;52.210;5.148;2024-02-26T05:56:48;18.05;;;11.23;;
81679;SDS011;74989;52.210;5.148;2024-02-26T05:59:15;17.73;;;11.50;;
81679;SDS011;74989;52.210;5.148;2024-02-26T06:01:42;19.08;;;12.57;;
81679;SDS011;74989;52.210;5.148;2024-02-26T06:04:09;16.52;;;11.35;;
81679;SDS011;74989;52.210;5.148;2024-02-26T06:06:37;19.00;;;11.13;;
81679;SDS011;74989;52.210;5.148;2024-02-26T06:09:04;17.15;;;12.25;;
81679;SDS011;74989;52.210;5.148;2024-02-26T06:11:31;21.15;;;12.70;;
81679;SDS011;74989;52.210;5.148;2024-02-26T06:13:57;18.92;;;12.77;;
81679;SDS011;74989;52.210;5.148;2024-02-26T06:16:24;16.08;;;12.13;;
81679;SDS011;74989;52.210;5.148;2024-02-26T06:18:51;18.27;;;11.37;;
81679;SDS011;74989;52.210;5.148;2024-02-26T06:21:19;18.60;;;12.82;;
81679;SDS011;74989;52.210;5.148;2024-02-26T06:23:45;21.02;;;13.52;;
81679;SDS011;74989;52.210;5.148;2024-02-26T06:26:12;21.95;;;13.65;;
81679;SDS011;74989;52.210;5.148;2024-02-26T06:28:39;23.20;;;14.60;;
81679;SDS011;74989;52.210;5.148;2024-02-26T06:31:06;22.83;;;15.00;;
81679;SDS011;74989;52.210;5.148;2024-02-26T06:33:33;24.63;;;15.45;;
81679;SDS011;74989;52.210;5.148;2024-02-26T06:36:02;19.70;;;14.23;;
81679;SDS011;74989;52.210;5.148;2024-02-26T06:38:31;23.08;;;16.30;;
81679;SDS011;74989;52.210;5.148;2024-02-26T06:40:57;23.27;;;15.25;;
81679;SDS011;74989;52.210;5.148;2024-02-26T06:43:24;22.57;;;15.57;;
81679;SDS011;74989;52.210;5.148;2024-02-26T06:45:51;23.23;;;13.80;;
81679;SDS011;74989;52.210;5.148;2024-02-26T06:48:17;23.40;;;16.20;;
81679;SDS011;74989;52.210;5.148;2024-02-26T06:50:44;24.05;;;16.55;;
81679;SDS011;74989;52.210;5.148;2024-02-26T06:53:10;24.45;;;16.30;;
81679;SDS011;74989;52.210;5.148;2024-02-26T06:55:38;21.87;;;15.03;;
81679;SDS011;74989;52.210;5.148;2024-02-26T06:58:05;22.42;;;15.77;;
81679;SDS011;74989;52.210;5.148;2024-02-26T07:00:32;25.98;;;15.60;;
81679;SDS011;74989;52.210;5.148;2024-02-26T07:02:59;21.02;;;15.18;;
81679;SDS011;74989;52.210;5.148;2024-02-26T07:05:26;23.63;;;16.25;;
81679;SDS011;74989;52.210;5.148;2024-02-26T07:07:52;26.60;;;14.90;;
81679;SDS011;74989;52.210;5.148;2024-02-26T07:10:19;21.38;;;15.77;;
81679;SDS011;74989;52.210;5.148;2024-02-26T07:12:47;20.27;;;15.55;;
81679;SDS011;74989;52.210;5.148;2024-02-26T07:15:14;22.90;;;16.60;;
81679;SDS011;74989;52.210;5.148;2024-02-26T07:17:41;21.05;;;14.60;;
81679;SDS011;74989;52.210;5.148;2024-02-26T07:20:12;24.63;;;15.50;;
81679;SDS011;74989;52.210;5.148;2024-02-26T07:22:38;20.98;;;14.70;;
81679;SDS011;74989;52.210;5.148;2024-02-26T07:25:06;21.65;;;13.38;;
81679;SDS011;74989;52.210;5.148;2024-02-26T07:27:34;20.40;;;13.88;;
81679;SDS011;74989;52.210;5.148;2024-02-26T07:30:02;19.30;;;14.80;;
81679;SDS011;74989;52.210;5.148;2024-02-26T07:32:29;17.97;;;12.27;;
81679;SDS011;74989;52.210;5.148;2024-02-26T07:34:55;16.67;;;12.55;;
81679;SDS011;74989;52.210;5.148;2024-02-26T07:37:22;17.23;;;12.48;;
81679;SDS011;74989;52.210;5.148;2024-02-26T07:39:48;17.38;;;12.02;;
81679;SDS011;74989;52.210;5.148;2024-02-26T07:42:15;15.90;;;12.90;;
81679;SDS011;74989;52.210;5.148;2024-02-26T07:44:42;16.90;;;11.67;;
81679;SDS011;74989;52.210;5.148;2024-02-26T07:47:10;13.30;;;10.30;;
81679;SDS011;74989;52.210;5.148;2024-02-26T07:49:36;15.23;;;11.60;;
81679;SDS011;74989;52.210;5.148;2024-02-26T07:52:03;14.07;;;11.05;;
81679;SDS011;74989;52.210;5.148;2024-02-26T07:54:30;12.40;;;10.52;;
81679;SDS011;74989;52.210;5.148;2024-02-26T07:56:56;14.80;;;10.30;;
81679;SDS011;74989;52.210;5.148;2024-02-26T07:59:23;9.40;;;7.90;;
81679;SDS011;74989;52.210;5.148;2024-02-26T08:01:50;12.05;;;10.02;;
81679;SDS011;74989;52.210;5.148;2024-02-26T08:04:18;10.98;;;8.02;;
81679;SDS011;74989;52.210;5.148;2024-02-26T08:06:45;16.92;;;11.10;;
81679;SDS011;74989;52.210;5.148;2024-02-26T08:09:11;13.47;;;9.53;;
81679;SDS011;74989;52.210;5.148;2024-02-26T08:11:38;11.25;;;8.85;;
81679;SDS011;74989;52.210;5.148;2024-02-26T08:14:05;10.38;;;8.52;;
81679;SDS011;74989;52.210;5.148;2024-02-26T08:16:32;14.80;;;8.98;;
81679;SDS011;74989;52.210;5.148;2024-02-26T08:18:59;11.15;;;8.00;;
81679;SDS011;74989;52.210;5.148;2024-02-26T08:21:26;12.53;;;8.10;;
81679;SDS011;74989;52.210;5.148;2024-02-26T08:23:53;13.30;;;7.53;;
81679;SDS011;74989;52.210;5.148;2024-02-26T08:26:20;12.50;;;7.68;;
81679;SDS011;74989;52.210;5.148;2024-02-26T08:28:47;7.90;;;6.30;;
81679;SDS011;74989;52.210;5.148;2024-02-26T08:31:16;9.77;;;7.93;;
81679;SDS011;74989;52.210;5.148;2024-02-26T08:33:43;12.73;;;6.80;;
81679;SDS011;74989;52.210;5.148;2024-02-26T08:36:11;11.25;;;7.38;;
81679;SDS011;74989;52.210;5.148;2024-02-26T08:38:39;11.90;;;7.78;;
81679;SDS011;74989;52.210;5.148;2024-02-26T08:41:05;10.77;;;8.45;;
81679;SDS011;74989;52.210;5.148;2024-02-26T08:43:32;11.30;;;5.78;;
81679;SDS011;74989;52.210;5.148;2024-02-26T08:45:58;7.00;;;6.17;;
81679;SDS011;74989;52.210;5.148;2024-02-26T08:48:25;10.15;;;6.60;;
81679;SDS011;74989;52.210;5.148;2024-02-26T08:50:52;9.40;;;5.97;;
81679;SDS011;74989;52.210;5.148;2024-02-26T08:53:18;10.00;;;6.25;;
81679;SDS011;74989;52.210;5.148;2024-02-26T08:55:47;8.35;;;6.38;;
81679;SDS011;74989;52.210;5.148;2024-02-26T08:58:13;7.70;;;6.03;;
81679;SDS011;74989;52.210;5.148;2024-02-26T09:00:40;9.32;;;5.32;;
81679;SDS011;74989;52.210;5.148;2024-02-26T09:03:07;7.90;;;4.93;;
81679;SDS011;74989;52.210;5.148;2024-02-26T09:05:33;6.50;;;5.40;;
81679;SDS011;74989;52.210;5.148;2024-02-26T09:08:00;8.32;;;5.75;;
81679;SDS011;74989;52.210;5.148;2024-02-26T09:10:26;7.80;;;6.97;;
81679;SDS011;74989;52.210;5.148;2024-02-26T09:12:54;6.55;;;5.10;;
81679;SDS011;74989;52.210;5.148;2024-02-26T09:15:21;6.00;;;5.22;;
81679;SDS011;74989;52.210;5.148;2024-02-26T09:17:48;5.80;;;4.95;;
81679;SDS011;74989;52.210;5.148;2024-02-26T09:20:15;4.28;;;3.83;;
81679;SDS011;74989;52.210;5.148;2024-02-26T09:22:45;6.80;;;4.70;;
81679;SDS011;74989;52.210;5.148;2024-02-26T09:25:11;5.35;;;4.82;;
81679;SDS011;74989;52.210;5.148;2024-02-26T09:27:38;7.38;;;5.28;;
81679;SDS011;74989;52.210;5.148;2024-02-26T09:30:07;6.65;;;5.00;;
81679;SDS011;74989;52.210;5.148;2024-02-26T09:32:34;9.70;;;6.43;;
81679;SDS011;74989;52.210;5.148;2024-02-26T09:35:01;6.10;;;5.10;;
81679;SDS011;74989;52.210;5.148;2024-02-26T09:37:28;7.68;;;4.60;;
81679;SDS011;74989;52.210;5.148;2024-02-26T09:39:55;5.72;;;4.32;;
81679;SDS011;74989;52.210;5.148;2024-02-26T09:42:21;6.65;;;4.78;;
81679;SDS011;74989;52.210;5.148;2024-02-26T09:44:53;8.85;;;4.60;;
81679;SDS011;74989;52.210;5.148;2024-02-26T09:47:22;7.47;;;4.50;;
81679;SDS011;74989;52.210;5.148;2024-02-26T09:49:52;4.72;;;3.92;;
81679;SDS011;74989;52.210;5.148;2024-02-26T09:52:19;5.88;;;4.88;;
81679;SDS011;74989;52.210;5.148;2024-02-26T09:54:51;7.38;;;5.88;;
81679;SDS011;74989;52.210;5.148;2024-02-26T09:57:18;6.82;;;4.88;;
81679;SDS011;74989;52.210;5.148;2024-02-26T09:59:44;8.73;;;5.57;;
81679;SDS011;74989;52.210;5.148;2024-02-26T10:02:14;7.38;;;5.40;;
81679;SDS011;74989;52.210;5.148;2024-02-26T10:04:43;6.45;;;4.78;;
81679;SDS011;74989;52.210;5.148;2024-02-26T10:07:10;6.20;;;4.38;;
81679;SDS011;74989;52.210;5.148;2024-02-26T10:09:38;6.97;;;6.03;;
81679;SDS011;74989;52.210;5.148;2024-02-26T10:12:05;9.17;;;5.03;;
81679;SDS011;74989;52.210;5.148;2024-02-26T10:14:34;10.15;;;5.55;;
81679;SDS011;74989;52.210;5.148;2024-02-26T10:17:01;6.72;;;5.47;;
81679;SDS011;74989;52.210;5.148;2024-02-26T10:19:29;13.65;;;5.65;;
81679;SDS011;74989;52.210;5.148;2024-02-26T10:21:58;6.72;;;5.00;;
81679;SDS011;74989;52.210;5.148;2024-02-26T10:24:25;6.20;;;5.60;;
81679;SDS011;74989;52.210;5.148;2024-02-26T10:26:52;6.35;;;5.53;;
81679;SDS011;74989;52.210;5.148;2024-02-26T10:29:21;8.23;;;5.95;;
81679;SDS011;74989;52.210;5.148;2024-02-26T10:31:48;8.40;;;6.40;;
81679;SDS011;74989;52.210;5.148;2024-02-26T10:34:16;6.50;;;5.57;;
81679;SDS011;74989;52.210;5.148;2024-02-26T10:36:42;9.90;;;5.20;;
81679;SDS011;74989;52.210;5.148;2024-02-26T10:39:11;7.32;;;4.88;;
81679;SDS011;74989;52.210;5.148;2024-02-26T10:41:39;7.55;;;4.90;;
81679;SDS011;74989;52.210;5.148;2024-02-26T10:44:08;7.18;;;5.35;;
81679;SDS011;74989;52.210;5.148;2024-02-26T10:46:36;8.25;;;6.28;;
81679;SDS011;74989;52.210;5.148;2024-02-26T10:49:03;6.50;;;5.53;;
81679;SDS011;74989;52.210;5.148;2024-02-26T10:51:33;7.70;;;5.85;;
81679;SDS011;74989;52.210;5.148;2024-02-26T10:54:04;7.88;;;5.00;;
81679;SDS011;74989;52.210;5.148;2024-02-26T10:56:34;7.13;;;5.45;;
81679;SDS011;74989;52.210;5.148;2024-02-26T10:59:03;7.53;;;5.57;;
81679;SDS011;74989;52.210;5.148;2024-02-26T11:01:33;8.73;;;6.57;;
81679;SDS011;74989;52.210;5.148;2024-02-26T11:04:03;9.07;;;5.40;;
81679;SDS011;74989;52.210;5.148;2024-02-26T11:06:31;8.48;;;5.50;;
81679;SDS011;74989;52.210;5.148;2024-02-26T11:08:59;7.80;;;4.80;;
81679;SDS011;74989;52.210;5.148;2024-02-26T11:11:27;9.88;;;5.45;;
81679;SDS011;74989;52.210;5.148;2024-02-26T11:13:56;8.83;;;5.57;;
81679;SDS011;74989;52.210;5.148;2024-02-26T11:16:24;10.73;;;5.65;;
81679;SDS011;74989;52.210;5.148;2024-02-26T11:18:53;6.95;;;4.85;;
81679;SDS011;74989;52.210;5.148;2024-02-26T11:21:21;6.63;;;5.20;;
81679;SDS011;74989;52.210;5.148;2024-02-26T11:23:52;9.65;;;5.38;;
81679;SDS011;74989;52.210;5.148;2024-02-26T11:26:20;6.90;;;4.50;;
81679;SDS011;74989;52.210;5.148;2024-02-26T11:28:48;6.25;;;4.75;;
81679;SDS011;74989;52.210;5.148;2024-02-26T11:31:19;8.68;;;4.82;;
81679;SDS011;74989;52.210;5.148;2024-02-26T11:33:52;7.57;;;4.95;;
81679;SDS011;74989;52.210;5.148;2024-02-26T11:36:19;7.53;;;4.75;;
81679;SDS011;74989;52.210;5.148;2024-02-26T11:38:46;7.17;;;5.17;;
81679;SDS011;74989;52.210;5.148;2024-02-26T11:41:16;7.45;;;4.88;;
81679;SDS011;74989;52.210;5.148;2024-02-26T11:43:49;6.03;;;4.70;;
81679;SDS011;74989;52.210;5.148;2024-02-26T11:46:28;4.97;;;4.47;;
81679;SDS011;74989;52.210;5.148;2024-02-26T11:48:56;6.28;;;3.85;;
81679;SDS011;74989;52.210;5.148;2024-02-26T11:51:25;6.23;;;4.77;;
81679;SDS011;74989;52.210;5.148;2024-02-26T11:53:53;6.28;;;4.95;;
81679;SDS011;74989;52.210;5.148;2024-02-26T11:56:25;7.65;;;4.82;;
81679;SDS011;74989;52.210;5.148;2024-02-26T11:58:56;5.60;;;4.28;;
81679;SDS011;74989;52.210;5.148;2024-02-26T12:01:44;6.55;;;4.82;;
81679;SDS011;74989;52.210;5.148;2024-02-26T12:04:13;6.80;;;4.70;;
81679;SDS011;74989;52.210;5.148;2024-02-26T12:06:47;6.25;;;4.25;;
81679;SDS011;74989;52.210;5.148;2024-02-26T12:09:32;6.25;;;4.50;;
81679;SDS011;74989;52.210;5.148;2024-02-26T12:12:02;5.18;;;4.18;;
81679;SDS011;74989;52.210;5.148;2024-02-26T12:14:32;6.35;;;4.28;;
81679;SDS011;74989;52.210;5.148;2024-02-26T12:17:02;6.10;;;3.97;;
81679;SDS011;74989;52.210;5.148;2024-02-26T12:19:32;4.15;;;3.65;;
81679;SDS011;74989;52.210;5.148;2024-02-26T12:21:59;5.50;;;4.47;;
81679;SDS011;74989;52.210;5.148;2024-02-26T12:24:25;6.03;;;4.28;;
81679;SDS011;74989;52.210;5.148;2024-02-26T12:26:52;5.35;;;3.85;;
81679;SDS011;74989;52.210;5.148;2024-02-26T12:29:18;8.27;;;4.00;;
81679;SDS011;74989;52.210;5.148;2024-02-26T12:31:45;6.53;;;4.18;;
81679;SDS011;74989;52.210;5.148;2024-02-26T12:34:13;5.43;;;4.13;;
81679;SDS011;74989;52.210;5.148;2024-02-26T12:36:41;5.82;;;4.15;;
81679;SDS011;74989;52.210;5.148;2024-02-26T12:39:08;5.82;;;4.28;;
81679;SDS011;74989;52.210;5.148;2024-02-26T12:41:35;6.73;;;4.20;;
81679;SDS011;74989;52.210;5.148;2024-02-26T12:44:04;4.82;;;3.75;;
81679;SDS011;74989;52.210;5.148;2024-02-26T12:46:32;6.40;;;3.90;;
81679;SDS011;74989;52.210;5.148;2024-02-26T12:48:58;6.43;;;3.90;;
81679;SDS011;74989;52.210;5.148;2024-02-26T12:51:27;5.47;;;4.18;;
81679;SDS011;74989;52.210;5.148;2024-02-26T12:53:54;5.63;;;4.10;;
81679;SDS011;74989;52.210;5.148;2024-02-26T12:56:22;4.40;;;3.90;;
81679;SDS011;74989;52.210;5.148;2024-02-26T12:58:49;6.78;;;4.18;;
81679;SDS011;74989;52.210;5.148;2024-02-26T13:01:18;6.13;;;4.30;;
81679;SDS011;74989;52.210;5.148;2024-02-26T13:03:47;4.10;;;3.53;;
81679;SDS011;74989;52.210;5.148;2024-02-26T13:06:15;6.93;;;3.77;;
81679;SDS011;74989;52.210;5.148;2024-02-26T13:08:44;6.95;;;4.05;;
81679;SDS011;74989;52.210;5.148;2024-02-26T13:11:12;5.32;;;3.88;;
81679;SDS011;74989;52.210;5.148;2024-02-26T13:13:38;5.10;;;4.25;;
81679;SDS011;74989;52.210;5.148;2024-02-26T13:16:05;4.95;;;3.40;;
81679;SDS011;74989;52.210;5.148;2024-02-26T13:18:33;6.20;;;3.53;;
81679;SDS011;74989;52.210;5.148;2024-02-26T13:21:07;5.00;;;3.67;;
81679;SDS011;74989;52.210;5.148;2024-02-26T13:23:35;5.05;;;3.85;;
81679;SDS011;74989;52.210;5.148;2024-02-26T13:26:03;4.50;;;3.58;;
81679;SDS011;74989;52.210;5.148;2024-02-26T13:28:30;3.70;;;3.20;;
81679;SDS011;74989;52.210;5.148;2024-02-26T13:30:58;7.63;;;4.20;;
81679;SDS011;74989;52.210;5.148;2024-02-26T13:33:26;7.60;;;3.60;;
81679;SDS011;74989;52.210;5.148;2024-02-26T13:35:54;4.47;;;4.07;;
81679;SDS011;74989;52.210;5.148;2024-02-26T13:38:22;5.68;;;4.72;;
81679;SDS011;74989;52.210;5.148;2024-02-26T13:40:49;5.60;;;4.15;;
81679;SDS011;74989;52.210;5.148;2024-02-26T13:43:17;5.97;;;3.30;;
81679;SDS011;74989;52.210;5.148;2024-02-26T13:45:44;4.68;;;3.40;;
81679;SDS011;74989;52.210;5.148;2024-02-26T13:48:11;5.03;;;3.50;;
81679;SDS011;74989;52.210;5.148;2024-02-26T13:50:38;5.05;;;3.20;;
81679;SDS011;74989;52.210;5.148;2024-02-26T13:53:05;3.47;;;2.80;;
81679;SDS011;74989;52.210;5.148;2024-02-26T13:55:32;5.30;;;3.77;;
81679;SDS011;74989;52.210;5.148;2024-02-26T13:57:59;5.00;;;3.42;;
81679;SDS011;74989;52.210;5.148;2024-02-26T14:00:28;6.72;;;3.60;;
81679;SDS011;74989;52.210;5.148;2024-02-26T14:02:57;4.97;;;3.40;;
81679;SDS011;74989;52.210;5.148;2024-02-26T14:05:24;4.10;;;3.47;;
81679;SDS011;74989;52.210;5.148;2024-02-26T14:07:50;4.30;;;3.53;;
81679;SDS011;74989;52.210;5.148;2024-02-26T14:10:17;3.33;;;3.00;;
81679;SDS011;74989;52.210;5.148;2024-02-26T14:12:44;3.55;;;2.97;;
81679;SDS011;74989;52.210;5.148;2024-02-26T14:15:10;4.57;;;3.45;;
81679;SDS011;74989;52.210;5.148;2024-02-26T14:17:38;4.07;;;3.20;;
81679;SDS011;74989;52.210;5.148;2024-02-26T14:20:05;3.50;;;2.60;;
81679;SDS011;74989;52.210;5.148;2024-02-26T14:22:34;3.67;;;2.60;;
81679;SDS011;74989;52.210;5.148;2024-02-26T14:25:00;3.60;;;2.88;;
81679;SDS011;74989;52.210;5.148;2024-02-26T14:27:26;6.03;;;3.67;;
81679;SDS011;74989;52.210;5.148;2024-02-26T14:29:53;3.13;;;2.50;;
81679;SDS011;74989;52.210;5.148;2024-02-26T14:32:20;3.80;;;2.65;;
81679;SDS011;74989;52.210;5.148;2024-02-26T14:34:48;3.10;;;2.67;;
81679;SDS011;74989;52.210;5.148;2024-02-26T14:37:14;4.07;;;3.22;;
81679;SDS011;74989;52.210;5.148;2024-02-26T14:39:41;4.07;;;3.67;;
81679;SDS011;74989;52.210;5.148;2024-02-26T14:42:08;6.37;;;2.73;;